Hendersonville, NC

9:48 AM EST on December 06, 2016 (GMT -0500)
Holly Berry | | Change Station

Elev 2129 ft 35.23 °N, 82.53 °W | Updated 27 seconds ago

Light Rain
Light Rain Mist
39.9 °F
Feels Like 40 °F
N
0.4
Wind Variable Wind from NE
Gusts 2.5 mph

Today
High -- | Low -- °F
--% Chance of Precip.
Yesterday
High -- | Low -- °F
Precip. -- in
Pressure 29.80 in
Visibility 2.0 miles
Clouds Scattered Clouds 700 ft
Overcast 1400 ft
Windchill 40 °F
Dew Point 40 °F
Humidity 99%
Rainfall 0.63 in
Snow Depth Not available.
7:25 AM 5:17 PM
Waxing Crescent, 42% visible
SPECI KAVL 061407Z 19008KT 2SM -RA BR SCT007 OVC014 07/06 A2980 RMK AO2 SFC VIS 3 P0001 T00670056
Pressure 29.80 in
Visibility 2.0 miles
Clouds Scattered Clouds 700 ft
Overcast 1400 ft
Windchill 40 °F
Dew Point 40 °F
Humidity 99%
Rainfall 0.63 in
Snow Depth Not available.
7:25 AM 5:17 PM
Waxing Crescent, 42% visible
SPECI KAVL 061407Z 19008KT 2SM -RA BR SCT007 OVC014 07/06 A2980 RMK AO2 SFC VIS 3 P0001 T00670056

10-Day Weather Forecast

Almanac

Astronomy

Dec. 06, 2016 Rise Set
Actual Time
Civil Twilight
Nautical Twilight
Astronomical Twilight
Moon
Length of Visible Light
Length of Day
Tomorrow will be .
, % of the Moon is Illuminated

Today's Extremes

State Highs State Lows

Community

WunderPhotos

Upload Photos

1,955,950 photos uploaded!

WunderBlog® & News

Nearby

Air Quality

  Air Quality AQ Index Pollutant
Not available.

Snow Depth

Station Depth Elevation

Earthquake Activity

City Distance Mag. Time & Date
Minimum magnitude displayed is 2.5.

Coastal Water Temperatures

Place Temperature

Stations

Nearby Weather Stations

Station Location Temp. Windchill Dew Point Humidity Wind Precip. Elev Updated Type
                   

Watches & Warnings

There are currently no watches in effect.